Terminal Aerodrome Forecast
Issued by NWS

Home | Current Version | Previous Version | Text Only | Print | Product List | Glossary On
Versions: 1 2 3 4 5 6 7 8 9 10 11 12 13 14 15 16 17
000
FTUS43 KPAH 261040 AAA
TAFOWB
TAF AMD
KOWB 261040Z 2611/2706 16008KT P6SM SCT250
     FM261600 19013G21KT P6SM BKN040
     FM270400 18012G22KT P6SM VCTS BKN025CB PROB30 2704/2706 3SM
      TSRA OVC015CB=

USA.gov is the U.S. government's official web portal to all federal, state and local government web resources and services.